Time;durP1;ratioP1;P1;durP2;ratioP2;P2;SDS_P1;SDS_P2;PMS_P1;PMS_P2;Temp;Humidity;BMP_temperature;BMP_pressure;BME280_temperature;BME280_humidity;BME280_pressure;Samples;Min_cycle;Max_cycle;Signal;HPM_P1;HPM_P2
2023/03/22 00:02:04;;;;;;;46.63;40.58;;;;;;;;;;5004075;28;20048;-75
2023/03/22 00:04:30;;;;;;;40.72;36.30;;;;;;;;;;5013264;28;20459;-75
2023/03/22 00:06:55;;;;;;;40.60;36.17;;;;;;;;;;5013796;28;20025;-76
2023/03/22 00:09:20;;;;;;;46.47;40.42;;;;;;;;;;5015351;28;20433;-75
2023/03/22 00:11:49;;;;;;;39.25;34.97;;;;;;;;;;5007812;28;20025;-75
2023/03/22 00:14:15;;;;;;;45.27;39.00;;;;;;;;;;5016512;28;20021;-75
2023/03/22 00:16:40;;;;;;;63.47;56.83;;;;;;;;;;5004604;28;20308;-75
2023/03/22 00:19:05;;;;;;;54.03;48.28;;;;;;;;;;5025930;28;20067;-76
2023/03/22 00:21:31;;;;;;;92.75;80.40;;;;;;;;;;5005100;28;20021;-75
2023/03/22 00:23:56;;;;;;;89.68;79.97;;;;;;;;;;5014866;28;20685;-76
2023/03/22 00:26:21;;;;;;;110.63;98.13;;;;;;;;;;5013619;28;20428;-75
2023/03/22 00:28:47;;;;;;;108.65;96.75;;;;;;;;;;5012002;28;20030;-75
2023/03/22 00:31:12;;;;;;;62.45;55.67;;;;;;;;;;5003198;28;20103;-75
2023/03/22 00:33:37;;;;;;;55.53;49.53;;;;;;;;;;5013136;28;20029;-74
2023/03/22 00:36:07;;;;;;;57.45;48.92;;;;;;;;;;5006515;28;20061;-75
2023/03/22 00:38:38;;;;;;;;;;;;;;;;;;5011532;28;20036;-76
2023/03/22 00:41:07;;;;;;;51.40;45.92;;;;;;;;;;5013621;28;20308;-75
2023/03/22 00:43:33;;;;;;;55.45;48.30;;;;;;;;;;5012838;28;20018;-74
2023/03/22 00:45:58;;;;;;;45.17;40.25;;;;;;;;;;5015276;28;20084;-75
2023/03/22 00:48:23;;;;;;;48.40;42.08;;;;;;;;;;5003756;28;21301;-74
2023/03/22 00:50:49;;;;;;;48.88;43.13;;;;;;;;;;5015345;28;20041;-73
2023/03/22 00:53:14;;;;;;;81.30;63.70;;;;;;;;;;5005562;28;20878;-75
2023/03/22 00:55:39;;;;;;;57.47;51.28;;;;;;;;;;5001015;28;20494;-75
2023/03/22 00:58:05;;;;;;;49.90;44.50;;;;;;;;;;5008805;28;20433;-76
2023/03/22 01:00:32;;;;;;;54.05;48.25;;;;;;;;;;5002787;28;20113;-75
2023/03/22 01:02:58;;;;;;;68.22;60.97;;;;;;;;;;5010136;28;20025;-75
2023/03/22 01:05:24;;;;;;;61.30;54.58;;;;;;;;;;5013899;28;20461;-76
2023/03/22 01:07:49;;;;;;;66.80;57.08;;;;;;;;;;5003250;28;20058;-75
2023/03/22 01:10:15;;;;;;;85.72;66.47;;;;;;;;;;5014548;28;20728;-75
2023/03/22 01:12:41;;;;;;;96.35;73.03;;;;;;;;;;5011596;28;20112;-75
2023/03/22 01:15:06;;;;;;;110.18;78.03;;;;;;;;;;5014464;28;20109;-75
2023/03/22 01:17:31;;;;;;;123.90;88.07;;;;;;;;;;5009520;28;20030;-76
2023/03/22 01:19:57;;;;;;;124.07;90.28;;;;;;;;;;5014365;28;20071;-74
2023/03/22 01:22:22;;;;;;;108.22;83.53;;;;;;;;;;5025463;28;20029;-76
2023/03/22 01:24:48;;;;;;;102.63;76.53;;;;;;;;;;4999662;28;20029;-75
2023/03/22 01:27:14;;;;;;;98.32;72.13;;;;;;;;;;5006593;28;20448;-75
2023/03/22 01:29:39;;;;;;;80.00;60.17;;;;;;;;;;5009781;28;20108;-75
2023/03/22 01:32:05;;;;;;;81.32;60.28;;;;;;;;;;5006976;28;20025;-74
2023/03/22 01:34:30;;;;;;;76.18;58.42;;;;;;;;;;5013296;28;20021;-75
2023/03/22 01:36:56;;;;;;;79.15;60.95;;;;;;;;;;5014940;28;20044;-75
2023/03/22 01:39:21;;;;;;;69.35;55.63;;;;;;;;;;5011313;28;20057;-74
2023/03/22 01:41:46;;;;;;;54.33;44.38;;;;;;;;;;5006482;28;20033;-74
2023/03/22 01:44:12;;;;;;;54.80;43.47;;;;;;;;;;5014527;28;20436;-74
2023/03/22 01:46:38;;;;;;;55.92;46.40;;;;;;;;;;5014239;28;20083;-74
2023/03/22 01:49:04;;;;;;;66.00;55.70;;;;;;;;;;5018834;28;20070;-74
2023/03/22 01:51:29;;;;;;;65.28;54.40;;;;;;;;;;5018393;28;20041;-74
2023/03/22 01:53:56;;;;;;;70.55;49.17;;;;;;;;;;5017306;28;20040;-75
2023/03/22 01:56:23;;;;;;;63.10;49.40;;;;;;;;;;5014572;28;20104;-75
2023/03/22 01:58:49;;;;;;;73.25;58.85;;;;;;;;;;5005254;28;20030;-74
2023/03/22 02:01:14;;;;;;;60.95;52.05;;;;;;;;;;5004375;28;20044;-74
2023/03/22 02:03:45;;;;;;;58.20;48.35;;;;;;;;;;5011676;28;20028;-75
2023/03/22 02:06:10;;;;;;;84.90;67.10;;;;;;;;;;5012329;28;20441;-74
2023/03/22 02:08:36;;;;;;;69.43;54.88;;;;;;;;;;5014835;28;20025;-75
2023/03/22 02:11:02;;;;;;;65.05;52.70;;;;;;;;;;5015149;28;20100;-75
2023/03/22 02:13:37;;;;;;;66.80;53.90;;;;;;;;;;5008629;28;20403;-75
2023/03/22 02:16:28;;;;;;;69.30;55.83;;;;;;;;;;5006690;28;20026;-74
2023/03/22 02:18:58;;;;;;;78.60;64.15;;;;;;;;;;5011571;28;20036;-74
2023/03/22 02:21:23;;;;;;;;;;;;;;;;;;5012488;28;20037;-75
2023/03/22 02:24:07;;;;;;;75.00;58.03;;;;;;;;;;5018057;28;19920;-76
2023/03/22 02:26:40;;;;;;;104.60;75.80;;;;;;;;;;5007097;28;20033;-74
2023/03/22 02:29:25;;;;;;;128.15;90.82;;;;;;;;;;5022964;28;20041;-75
2023/03/22 02:31:57;;;;;;;94.47;70.90;;;;;;;;;;5028426;28;20087;-73
2023/03/22 02:34:31;;;;;;;89.00;69.45;;;;;;;;;;5014641;28;20112;-75
2023/03/22 02:36:56;;;;;;;68.15;53.47;;;;;;;;;;5003965;28;20073;-74
2023/03/22 02:39:38;;;;;;;85.55;58.30;;;;;;;;;;5016224;28;20032;-74
2023/03/22 02:42:12;;;;;;;85.90;60.28;;;;;;;;;;5008109;28;20083;-73
2023/03/22 02:44:53;;;;;;;77.35;58.50;;;;;;;;;;5013604;28;20049;-74
2023/03/22 02:47:23;;;;;;;57.63;47.13;;;;;;;;;;5007151;28;20487;-74
2023/03/22 02:49:48;;;;;;;48.85;39.47;;;;;;;;;;5004038;28;20034;-73
2023/03/22 02:52:38;;;;;;;49.65;42.90;;;;;;;;;;5008514;28;20357;-74
2023/03/22 02:55:06;;;;;;;41.42;35.03;;;;;;;;;;5035217;28;20040;-74
2023/03/22 02:57:39;;;;;;;38.38;33.67;;;;;;;;;;5035374;28;20044;-73
2023/03/22 03:00:12;;;;;;;41.67;37.13;;;;;;;;;;5032251;28;20037;-74
2023/03/22 03:02:58;;;;;;;41.85;36.20;;;;;;;;;;5034433;28;20024;-73
2023/03/22 03:05:25;;;;;;;46.88;39.38;;;;;;;;;;5033939;28;20033;-73
2023/03/22 03:07:55;;;;;;;48.10;41.22;;;;;;;;;;5021545;28;20723;-75
2023/03/22 03:10:21;;;;;;;54.67;45.38;;;;;;;;;;5024286;28;20043;-73
2023/03/22 03:12:47;;;;;;;64.95;48.15;;;;;;;;;;5028515;28;20076;-76
2023/03/22 03:15:17;;;;;;;92.63;62.53;;;;;;;;;;5034292;28;20094;-73
2023/03/22 03:17:57;;;;;;;93.18;61.50;;;;;;;;;;5030363;28;20025;-73
2023/03/22 03:20:29;;;;;;;70.43;50.63;;;;;;;;;;5031369;28;20036;-73
2023/03/22 03:23:08;;;;;;;38.70;31.15;;;;;;;;;;5034182;28;20017;-74
2023/03/22 03:25:42;;;;;;;36.17;30.85;;;;;;;;;;5029805;28;20051;-74
2023/03/22 03:28:21;;;;;;;34.67;29.77;;;;;;;;;;5030781;28;20037;-72
2023/03/22 03:30:47;;;;;;;;;;;;;;;;;;5021844;28;20621;-75
2023/03/22 03:33:15;;;;;;;32.07;28.53;;;;;;;;;;5017207;28;19917;-75
2023/03/22 03:35:47;;;;;;;75.93;61.78;;;;;;;;;;5016147;28;20391;-73
2023/03/22 03:38:17;;;;;;;45.78;39.58;;;;;;;;;;5016824;28;20025;-73
2023/03/22 03:41:00;;;;;;;35.53;31.65;;;;;;;;;;5015798;28;20449;-72
2023/03/22 03:43:26;;;;;;;32.47;28.80;;;;;;;;;;5015744;28;20036;-72
2023/03/22 03:45:52;;;;;;;30.92;27.52;;;;;;;;;;5014517;28;20452;-74
2023/03/22 03:48:18;;;;;;;28.13;25.13;;;;;;;;;;5004052;28;20083;-75
2023/03/22 03:50:44;;;;;;;26.88;24.08;;;;;;;;;;5014650;28;20033;-74
2023/03/22 03:53:09;;;;;;;31.70;28.30;;;;;;;;;;5014136;28;20025;-74
2023/03/22 03:55:35;;;;;;;29.02;25.23;;;;;;;;;;5005154;28;20032;-73
2023/03/22 03:58:00;;;;;;;41.33;36.20;;;;;;;;;;5013612;28;20827;-74
2023/03/22 04:00:26;;;;;;;37.63;30.98;;;;;;;;;;5015382;28;20030;-74
2023/03/22 04:02:51;;;;;;;34.60;30.90;;;;;;;;;;5013900;28;20072;-75
2023/03/22 04:05:17;;;;;;;82.65;63.88;;;;;;;;;;5008226;28;20091;-73
2023/03/22 04:07:42;;;;;;;30.80;27.35;;;;;;;;;;5008015;28;20025;-73
2023/03/22 04:10:07;;;;;;;28.30;25.35;;;;;;;;;;5013892;28;20045;-74
2023/03/22 04:12:33;;;;;;;31.63;28.27;;;;;;;;;;5012551;28;20127;-73
2023/03/22 04:14:58;;;;;;;29.13;26.33;;;;;;;;;;5008730;28;20017;-75
2023/03/22 04:17:24;;;;;;;26.65;23.95;;;;;;;;;;5007889;28;20022;-73
2023/03/22 04:19:52;;;;;;;23.58;21.08;;;;;;;;;;5014339;28;20397;-72
2023/03/22 04:22:17;;;;;;;30.15;27.05;;;;;;;;;;5030576;28;20029;-73
2023/03/22 04:24:49;;;;;;;29.48;26.55;;;;;;;;;;5015014;28;20037;-73
2023/03/22 04:27:17;;;;;;;34.15;29.42;;;;;;;;;;5014231;28;20043;-73
2023/03/22 04:29:47;;;;;;;36.28;27.88;;;;;;;;;;5009868;28;21401;-73
2023/03/22 04:32:13;;;;;;;38.90;26.13;;;;;;;;;;5008578;28;20047;-75
2023/03/22 04:34:38;;;;;;;41.28;26.73;;;;;;;;;;5012676;28;20207;-74
2023/03/22 04:37:03;;;;;;;47.35;32.28;;;;;;;;;;5015101;28;20096;-74
2023/03/22 04:39:29;;;;;;;51.92;34.05;;;;;;;;;;5013983;28;20083;-75
2023/03/22 04:41:54;;;;;;;67.15;38.53;;;;;;;;;;5013633;28;20104;-74
2023/03/22 04:44:21;;;;;;;60.08;38.63;;;;;;;;;;5004470;28;20358;-75
2023/03/22 04:46:46;;;;;;;82.03;43.15;;;;;;;;;;5003498;28;20050;-75
2023/03/22 04:49:12;;;;;;;62.17;43.65;;;;;;;;;;4999379;28;20034;-75
2023/03/22 04:51:37;;;;;;;82.75;60.42;;;;;;;;;;4993353;28;20097;-75
2023/03/22 04:54:02;;;;;;;80.90;57.97;;;;;;;;;;4990922;28;20036;-74
2023/03/22 04:56:28;;;;;;;91.72;61.08;;;;;;;;;;4990469;28;20088;-76
2023/03/22 04:58:53;;;;;;;102.85;61.80;;;;;;;;;;4995237;28;20181;-75
2023/03/22 05:01:18;;;;;;;131.55;83.97;;;;;;;;;;5002728;28;20453;-74
2023/03/22 05:03:47;;;;;;;167.63;87.13;;;;;;;;;;5006066;28;20092;-74
2023/03/22 05:06:12;;;;;;;168.98;81.10;;;;;;;;;;5012431;28;20033;-73
2023/03/22 05:08:38;;;;;;;147.18;92.97;;;;;;;;;;5013803;28;20076;-74
2023/03/22 05:11:05;;;;;;;215.05;98.72;;;;;;;;;;5015277;28;20456;-76
2023/03/22 05:13:30;;;;;;;138.93;66.20;;;;;;;;;;5012166;28;20049;-74
2023/03/22 05:15:56;;;;;;;153.52;95.57;;;;;;;;;;5002602;28;20094;-74
2023/03/22 05:18:25;;;;;;;169.10;92.60;;;;;;;;;;4999347;28;20049;-75
2023/03/22 05:20:52;;;;;;;117.57;65.75;;;;;;;;;;5013307;28;20021;-78
2023/03/22 05:23:18;;;;;;;105.78;49.53;;;;;;;;;;5015291;28;21255;-78
2023/03/22 05:25:46;;;;;;;67.63;37.92;;;;;;;;;;5002898;28;20030;-75
2023/03/22 05:28:13;;;;;;;91.68;47.55;;;;;;;;;;5010223;28;20352;-74
2023/03/22 05:30:38;;;;;;;82.75;47.63;;;;;;;;;;5013626;28;20455;-75
2023/03/22 05:33:04;;;;;;;67.00;42.53;;;;;;;;;;5012808;28;20033;-75
2023/03/22 05:35:30;;;;;;;59.10;40.90;;;;;;;;;;5011826;28;20061;-76
2023/03/22 05:37:56;;;;;;;58.33;42.60;;;;;;;;;;5004956;28;20087;-76
2023/03/22 05:40:21;;;;;;;160.32;108.28;;;;;;;;;;5008486;28;20025;-76
2023/03/22 05:42:47;;;;;;;103.00;80.35;;;;;;;;;;5011960;28;20099;-75
2023/03/22 05:45:12;;;;;;;129.20;99.53;;;;;;;;;;4997341;28;20033;-77
2023/03/22 05:47:38;;;;;;;99.82;75.10;;;;;;;;;;5001879;28;20031;-75
2023/03/22 05:50:07;;;;;;;59.15;47.17;;;;;;;;;;5002879;28;20060;-76
2023/03/22 05:52:33;;;;;;;50.10;42.08;;;;;;;;;;5013664;28;20087;-75
2023/03/22 05:54:58;;;;;;;46.30;38.28;;;;;;;;;;5011691;28;20465;-76
2023/03/22 05:57:23;;;;;;;61.47;52.10;;;;;;;;;;5013966;28;20021;-76
2023/03/22 05:59:48;;;;;;;50.67;41.42;;;;;;;;;;5014516;28;20030;-76
2023/03/22 06:02:14;;;;;;;87.00;71.15;;;;;;;;;;5000016;28;20080;-76
2023/03/22 06:04:40;;;;;;;126.57;100.95;;;;;;;;;;5000536;28;20068;-76
2023/03/22 06:07:06;;;;;;;164.40;128.48;;;;;;;;;;5009424;28;20037;-75
2023/03/22 06:09:31;;;;;;;184.68;138.02;;;;;;;;;;5011175;28;20333;-76
2023/03/22 06:11:57;;;;;;;133.15;104.70;;;;;;;;;;5011714;28;20026;-75
2023/03/22 06:14:22;;;;;;;78.25;65.97;;;;;;;;;;5006336;28;20398;-77
2023/03/22 06:16:47;;;;;;;57.55;49.08;;;;;;;;;;4999181;28;20065;-77
2023/03/22 06:19:16;;;;;;;46.70;39.58;;;;;;;;;;5000302;28;20031;-76
2023/03/22 06:21:41;;;;;;;63.17;48.75;;;;;;;;;;4998179;28;20092;-76
2023/03/22 06:24:06;;;;;;;53.28;44.20;;;;;;;;;;5014078;28;20085;-75
2023/03/22 06:26:31;;;;;;;66.45;52.50;;;;;;;;;;5008081;28;20044;-77
2023/03/22 06:28:57;;;;;;;79.38;58.08;;;;;;;;;;5005600;28;20036;-77
2023/03/22 06:31:22;;;;;;;81.95;60.22;;;;;;;;;;5002017;28;20034;-76
2023/03/22 06:33:47;;;;;;;74.03;54.55;;;;;;;;;;5010014;28;20029;-76
2023/03/22 06:36:13;;;;;;;80.00;60.63;;;;;;;;;;5007398;28;20025;-77
2023/03/22 06:38:38;;;;;;;75.80;54.38;;;;;;;;;;5016771;28;20018;-76
2023/03/22 06:41:03;;;;;;;83.55;60.60;;;;;;;;;;5014099;28;20333;-77
2023/03/22 06:43:29;;;;;;;89.72;70.10;;;;;;;;;;5006189;28;20562;-76
2023/03/22 06:45:56;;;;;;;91.32;66.00;;;;;;;;;;5015552;28;20158;-77
2023/03/22 06:48:21;;;;;;;92.47;69.68;;;;;;;;;;5014828;28;20075;-75
2023/03/22 06:50:46;;;;;;;88.82;69.78;;;;;;;;;;5014096;28;20037;-75
2023/03/22 06:53:12;;;;;;;81.65;59.05;;;;;;;;;;5014896;28;20025;-78
2023/03/22 06:55:38;;;;;;;93.45;63.47;;;;;;;;;;5032009;28;20060;-74
2023/03/22 06:58:04;;;;;;;86.72;59.72;;;;;;;;;;5016571;28;20117;-75
2023/03/22 07:00:31;;;;;;;106.10;79.78;;;;;;;;;;5016364;28;20109;-75
2023/03/22 07:02:57;;;;;;;115.68;82.47;;;;;;;;;;5015227;28;20436;-75
2023/03/22 07:05:23;;;;;;;96.60;71.13;;;;;;;;;;5013315;28;20034;-75
2023/03/22 07:07:48;;;;;;;101.53;81.70;;;;;;;;;;5017394;28;20039;-74
2023/03/22 07:10:13;;;;;;;78.85;61.80;;;;;;;;;;5015748;28;20468;-74
2023/03/22 07:12:39;;;;;;;53.95;43.63;;;;;;;;;;5014869;28;20037;-75
2023/03/22 07:15:05;;;;;;;68.30;47.13;;;;;;;;;;5013468;28;20034;-75
2023/03/22 07:17:30;;;;;;;76.75;66.85;;;;;;;;;;5015007;28;20025;-76
2023/03/22 07:19:55;;;;;;;78.75;62.65;;;;;;;;;;5013818;28;20041;-75
2023/03/22 07:22:24;;;;;;;82.75;63.63;;;;;;;;;;5016610;28;20351;-75
2023/03/22 07:24:50;;;;;;;90.13;64.95;;;;;;;;;;5014199;28;20173;-74
2023/03/22 07:27:16;;;;;;;85.47;60.22;;;;;;;;;;5013862;28;20504;-76
2023/03/22 07:29:41;;;;;;;84.28;55.38;;;;;;;;;;5014121;28;20039;-76
2023/03/22 07:32:07;;;;;;;94.72;67.20;;;;;;;;;;5017566;28;20045;-77
2023/03/22 07:34:32;;;;;;;90.40;60.10;;;;;;;;;;5012975;28;20110;-75
2023/03/22 07:36:57;;;;;;;83.72;53.85;;;;;;;;;;5017162;28;20036;-75
2023/03/22 07:39:27;;;;;;;79.75;53.72;;;;;;;;;;5017186;28;20348;-74
2023/03/22 07:41:53;;;;;;;110.25;74.80;;;;;;;;;;5015123;28;20075;-74
2023/03/22 07:44:18;;;;;;;111.20;72.50;;;;;;;;;;5015530;28;20047;-75
2023/03/22 07:46:43;;;;;;;115.32;74.45;;;;;;;;;;5017654;28;20203;-75
2023/03/22 07:49:09;;;;;;;118.57;80.25;;;;;;;;;;5016779;28;20411;-74
2023/03/22 07:51:34;;;;;;;104.80;74.90;;;;;;;;;;5015512;28;20052;-74
2023/03/22 07:54:00;;;;;;;120.78;82.50;;;;;;;;;;5015037;28;20035;-74
2023/03/22 07:56:25;;;;;;;116.35;79.78;;;;;;;;;;5017443;28;20480;-74
2023/03/22 07:58:51;;;;;;;99.65;68.70;;;;;;;;;;5014756;28;20018;-76
2023/03/22 08:01:16;;;;;;;87.13;59.92;;;;;;;;;;5011153;28;20053;-74
2023/03/22 08:03:41;;;;;;;80.43;55.95;;;;;;;;;;5014462;28;20091;-75
2023/03/22 08:06:07;;;;;;;95.82;68.50;;;;;;;;;;5015956;28;20168;-74
2023/03/22 08:08:34;;;;;;;83.88;60.67;;;;;;;;;;5016065;28;20040;-75
2023/03/22 08:10:59;;;;;;;82.70;59.53;;;;;;;;;;5016031;28;20026;-75
2023/03/22 08:13:25;;;;;;;77.70;56.45;;;;;;;;;;5012475;28;20495;-77
2023/03/22 08:15:50;;;;;;;92.18;65.53;;;;;;;;;;5012469;28;20075;-75
2023/03/22 08:18:16;;;;;;;194.82;128.80;;;;;;;;;;5017086;28;20037;-74
2023/03/22 08:20:44;;;;;;;153.38;110.10;;;;;;;;;;5012533;28;20030;-77
2023/03/22 08:23:13;;;;;;;116.63;79.53;;;;;;;;;;5013626;28;20029;-74
2023/03/22 08:25:38;;;;;;;104.95;75.63;;;;;;;;;;5014397;28;20448;-73
2023/03/22 08:28:04;;;;;;;75.45;55.20;;;;;;;;;;5014139;28;20042;-74
2023/03/22 08:30:29;;;;;;;80.22;56.00;;;;;;;;;;5016519;28;20405;-74
2023/03/22 08:32:54;;;;;;;84.53;59.70;;;;;;;;;;5030897;28;20034;-74
2023/03/22 08:35:20;;;;;;;91.38;63.25;;;;;;;;;;5011904;28;20108;-77
2023/03/22 08:37:45;;;;;;;74.70;56.13;;;;;;;;;;5015409;28;20022;-76
2023/03/22 08:40:10;;;;;;;84.78;64.30;;;;;;;;;;5013239;28;20053;-74
2023/03/22 08:42:36;;;;;;;68.85;53.35;;;;;;;;;;5014731;28;20432;-76
2023/03/22 08:45:01;;;;;;;82.95;63.30;;;;;;;;;;5012203;28;20033;-74
2023/03/22 08:47:27;;;;;;;92.18;71.75;;;;;;;;;;5015259;28;20452;-74
2023/03/22 08:49:52;;;;;;;82.85;61.50;;;;;;;;;;5013599;28;20456;-74
2023/03/22 08:52:17;;;;;;;80.63;59.15;;;;;;;;;;5013549;28;20041;-74
2023/03/22 08:54:43;;;;;;;95.85;71.22;;;;;;;;;;5027493;28;20077;-75
2023/03/22 08:57:09;;;;;;;98.72;66.03;;;;;;;;;;5015711;28;20403;-75
2023/03/22 08:59:34;;;;;;;147.75;99.40;;;;;;;;;;5015855;28;20115;-80
2023/03/22 09:02:00;;;;;;;97.05;70.63;;;;;;;;;;5011967;28;20417;-74
2023/03/22 09:04:26;;;;;;;89.95;72.90;;;;;;;;;;5027037;28;20029;-75
2023/03/22 09:06:51;;;;;;;76.13;57.83;;;;;;;;;;5013636;28;20060;-74
2023/03/22 09:09:16;;;;;;;77.10;58.42;;;;;;;;;;5017411;28;20440;-74
2023/03/22 09:11:42;;;;;;;69.55;49.90;;;;;;;;;;5016782;28;20079;-74
2023/03/22 09:14:07;;;;;;;60.67;45.30;;;;;;;;;;5014837;28;20071;-75
2023/03/22 09:16:33;;;;;;;68.13;49.58;;;;;;;;;;5011467;28;20034;-74
2023/03/22 09:18:59;;;;;;;79.30;59.08;;;;;;;;;;5015607;28;20446;-76
2023/03/22 09:21:24;;;;;;;72.97;55.60;;;;;;;;;;5015627;28;20041;-74
2023/03/22 09:23:49;;;;;;;63.75;48.58;;;;;;;;;;5013734;28;20411;-74
2023/03/22 09:26:15;;;;;;;62.33;48.60;;;;;;;;;;5014665;28;20037;-76
2023/03/22 09:28:40;;;;;;;68.20;51.00;;;;;;;;;;5015305;28;20021;-74
2023/03/22 09:31:07;;;;;;;65.72;51.65;;;;;;;;;;5015167;28;20103;-74
2023/03/22 09:33:33;;;;;;;85.32;65.88;;;;;;;;;;5015674;28;20026;-74
2023/03/22 09:35:58;;;;;;;68.18;57.58;;;;;;;;;;5013729;28;20072;-73
2023/03/22 09:38:24;;;;;;;63.70;51.13;;;;;;;;;;5013554;28;20045;-75
2023/03/22 09:40:59;;;;;;;63.00;50.10;;;;;;;;;;5014257;28;20437;-74
2023/03/22 09:43:24;;;;;;;54.08;44.00;;;;;;;;;;5014036;28;20034;-74
2023/03/22 09:45:50;;;;;;;58.30;44.25;;;;;;;;;;5015461;28;20052;-73
2023/03/22 09:48:15;;;;;;;72.05;61.97;;;;;;;;;;5013255;28;20148;-75
2023/03/22 09:50:45;;;;;;;61.78;48.08;;;;;;;;;;5011424;28;20129;-75
2023/03/22 09:53:12;;;;;;;54.53;43.38;;;;;;;;;;5014959;28;20471;-76
2023/03/22 09:55:41;;;;;;;61.97;49.83;;;;;;;;;;5014472;28;20033;-74
2023/03/22 09:58:19;;;;;;;58.63;48.25;;;;;;;;;;5012964;28;20029;-76
2023/03/22 10:00:48;;;;;;;67.05;52.55;;;;;;;;;;5013111;28;20531;-74
2023/03/22 10:03:29;;;;;;;71.05;53.47;;;;;;;;;;5012195;28;20026;-71
2023/03/22 10:06:13;;;;;;;55.33;46.40;;;;;;;;;;5014288;28;20031;-73
2023/03/22 10:09:00;;;;;;;52.72;45.05;;;;;;;;;;5015777;28;20076;-73
2023/03/22 10:11:28;;;;;;;67.18;54.20;;;;;;;;;;5012657;28;20040;-73
2023/03/22 10:14:01;;;;;;;61.50;50.85;;;;;;;;;;5015404;28;20437;-73
2023/03/22 10:16:30;;;;;;;67.97;52.65;;;;;;;;;;5016588;28;20037;-73
2023/03/22 10:19:01;;;;;;;56.50;47.00;;;;;;;;;;5014277;28;20102;-75
2023/03/22 10:21:27;;;;;;;52.10;43.05;;;;;;;;;;5016221;28;21024;-74
2023/03/22 10:23:55;;;;;;;63.92;55.38;;;;;;;;;;5016806;28;20104;-74
2023/03/22 10:26:28;;;;;;;74.75;66.53;;;;;;;;;;5016347;28;20025;-76
2023/03/22 10:29:13;;;;;;;62.88;55.97;;;;;;;;;;5016005;28;20388;-73
2023/03/22 10:31:42;;;;;;;63.90;52.40;;;;;;;;;;5016131;28;20041;-75
2023/03/22 10:34:15;;;;;;;58.60;52.15;;;;;;;;;;5019188;28;20022;-73
2023/03/22 10:36:41;;;;;;;55.45;48.40;;;;;;;;;;5018245;28;20025;-73
2023/03/22 10:39:15;;;;;;;57.58;49.67;;;;;;;;;;5018181;28;20058;-73
2023/03/22 10:41:40;;;;;;;51.97;45.95;;;;;;;;;;5013180;28;20036;-74
2023/03/22 10:44:06;;;;;;;36.85;32.85;;;;;;;;;;5019429;28;20035;-75
2023/03/22 10:46:34;;;;;;;31.58;28.17;;;;;;;;;;5017615;28;20526;-74
2023/03/22 10:49:01;;;;;;;34.55;30.95;;;;;;;;;;5017388;28;20141;-74
2023/03/22 10:51:41;;;;;;;34.75;31.17;;;;;;;;;;5017107;28;20033;-74
2023/03/22 10:54:11;;;;;;;37.13;33.00;;;;;;;;;;5017568;28;20031;-76
2023/03/22 10:56:36;;;;;;;33.58;30.00;;;;;;;;;;5017716;28;20029;-74
2023/03/22 10:59:02;;;;;;;36.25;31.40;;;;;;;;;;5014150;28;20037;-75
2023/03/22 11:01:35;;;;;;;39.20;32.13;;;;;;;;;;5012506;28;20326;-73
2023/03/22 11:04:11;;;;;;;37.53;33.67;;;;;;;;;;5013451;28;20042;-73
2023/03/22 11:06:38;;;;;;;33.78;30.30;;;;;;;;;;5015759;28;20440;-74
2023/03/22 11:09:17;;;;;;;32.20;27.60;;;;;;;;;;5017699;28;20438;-75
2023/03/22 11:11:52;;;;;;;30.75;27.60;;;;;;;;;;5017481;28;20030;-76
2023/03/22 11:14:30;;;;;;;28.23;25.33;;;;;;;;;;5013776;28;20054;-75
2023/03/22 11:16:58;;;;;;;26.08;23.48;;;;;;;;;;5015003;28;20028;-75
2023/03/22 11:19:27;;;;;;;22.30;20.00;;;;;;;;;;5012918;28;20031;-75
2023/03/22 11:21:53;;;;;;;19.85;16.90;;;;;;;;;;5017019;28;20068;-78
2023/03/22 11:24:20;;;;;;;23.25;20.75;;;;;;;;;;5031064;28;20046;-76
2023/03/22 11:27:01;;;;;;;17.58;15.77;;;;;;;;;;5016339;28;20116;-76
2023/03/22 11:29:26;;;;;;;18.23;16.42;;;;;;;;;;5014103;28;20153;-77
2023/03/22 11:31:58;;;;;;;21.95;17.92;;;;;;;;;;5019173;28;20200;-76
2023/03/22 11:34:26;;;;;;;18.45;16.50;;;;;;;;;;5018086;28;21068;-74
2023/03/22 11:36:55;;;;;;;20.58;18.48;;;;;;;;;;5018248;28;20129;-75
2023/03/22 11:39:21;;;;;;;16.83;15.02;;;;;;;;;;5015533;28;20022;-75
2023/03/22 11:41:46;;;;;;;10.98;9.88;;;;;;;;;;5017508;28;20167;-75
2023/03/22 11:44:14;;;;;;;8.23;7.43;;;;;;;;;;5014883;28;20034;-77
2023/03/22 11:46:47;;;;;;;9.32;8.23;;;;;;;;;;5016249;28;20067;-74
2023/03/22 11:49:14;;;;;;;10.80;8.48;;;;;;;;;;5015375;28;20077;-76
2023/03/22 11:51:40;;;;;;;15.68;14.02;;;;;;;;;;5017587;28;20149;-74
2023/03/22 11:54:25;;;;;;;9.55;8.63;;;;;;;;;;5013719;28;20025;-75
2023/03/22 11:56:53;;;;;;;8.82;7.93;;;;;;;;;;5016825;28;20313;-75
2023/03/22 11:59:26;;;;;;;7.63;6.93;;;;;;;;;;5016468;28;20055;-74
2023/03/22 12:01:57;;;;;;;7.25;6.60;;;;;;;;;;5014469;28;20025;-75
2023/03/22 12:04:25;;;;;;;7.43;6.82;;;;;;;;;;5013891;28;20049;-76
2023/03/22 12:06:54;;;;;;;7.05;6.32;;;;;;;;;;5015308;28;20400;-75
2023/03/22 12:09:23;;;;;;;6.60;6.00;;;;;;;;;;5015196;28;20030;-75
2023/03/22 12:11:50;;;;;;;7.65;6.95;;;;;;;;;;5015187;28;20033;-75
2023/03/22 12:14:21;;;;;;;7.45;6.75;;;;;;;;;;5015580;28;20595;-76
2023/03/22 12:16:49;;;;;;;8.23;7.43;;;;;;;;;;5032027;28;20071;-75
2023/03/22 12:19:32;;;;;;;9.35;7.82;;;;;;;;;;5017235;28;20122;-75
2023/03/22 12:21:58;;;;;;;9.63;8.73;;;;;;;;;;5015276;28;20025;-74
2023/03/22 12:24:25;;;;;;;9.38;8.48;;;;;;;;;;5016594;28;20084;-76
2023/03/22 12:26:53;;;;;;;9.20;8.30;;;;;;;;;;5010538;28;20140;-75
2023/03/22 12:29:18;;;;;;;8.75;7.85;;;;;;;;;;5011325;28;20029;-74
2023/03/22 12:32:05;;;;;;;9.27;8.38;;;;;;;;;;5017126;28;20048;-76
2023/03/22 12:34:42;;;;;;;9.00;8.20;;;;;;;;;;5016519;28;20021;-75
2023/03/22 12:37:10;;;;;;;7.32;6.70;;;;;;;;;;5014620;28;20700;-75
2023/03/22 12:39:47;;;;;;;8.47;7.60;;;;;;;;;;5012735;28;20719;-75
2023/03/22 12:42:16;;;;;;;7.60;7.00;;;;;;;;;;5012135;28;20025;-76
2023/03/22 12:44:43;;;;;;;9.80;8.90;;;;;;;;;;5013637;28;20798;-74
2023/03/22 12:47:23;;;;;;;10.60;9.68;;;;;;;;;;5014905;28;20057;-75
2023/03/22 12:49:55;;;;;;;8.55;7.75;;;;;;;;;;5013337;28;20030;-75
2023/03/22 12:52:29;;;;;;;8.43;7.72;;;;;;;;;;5012785;28;20022;-75
2023/03/22 12:54:55;;;;;;;10.23;9.18;;;;;;;;;;5015020;28;20033;-74
2023/03/22 12:57:20;;;;;;;10.27;8.88;;;;;;;;;;5013706;28;20083;-74
2023/03/22 12:59:48;;;;;;;10.05;8.70;;;;;;;;;;5015161;28;20460;-74
2023/03/22 13:02:18;;;;;;;9.20;8.27;;;;;;;;;;5013766;28;20072;-76
2023/03/22 13:04:44;;;;;;;8.98;8.10;;;;;;;;;;5014919;28;20036;-77
2023/03/22 13:07:09;;;;;;;6.95;6.25;;;;;;;;;;5015947;28;20026;-75
2023/03/22 13:09:34;;;;;;;6.18;5.68;;;;;;;;;;5013614;28;20713;-75
2023/03/22 13:12:15;;;;;;;7.65;6.85;;;;;;;;;;5015566;28;20097;-77
2023/03/22 13:14:49;;;;;;;7.32;6.63;;;;;;;;;;5016210;28;20031;-74
2023/03/22 13:17:21;;;;;;;12.68;11.52;;;;;;;;;;5014951;28;20504;-77
2023/03/22 13:19:58;;;;;;;17.10;13.80;;;;;;;;;;5012614;28;20859;-74
2023/03/22 13:22:49;;;;;;;14.63;13.13;;;;;;;;;;5012191;28;20211;-74
2023/03/22 13:25:18;;;;;;;11.27;10.25;;;;;;;;;;5013963;28;20041;-77
2023/03/22 13:28:09;;;;;;;12.68;11.10;;;;;;;;;;5014708;28;20045;-75
2023/03/22 13:30:45;;;;;;;12.85;11.55;;;;;;;;;;5012504;28;20041;-77
2023/03/22 13:33:12;;;;;;;17.33;14.25;;;;;;;;;;5004779;28;20025;-75
2023/03/22 13:35:37;;;;;;;19.15;17.15;;;;;;;;;;5001711;28;20783;-78
2023/03/22 13:38:07;;;;;;;16.60;14.90;;;;;;;;;;5001467;28;20029;-75
2023/03/22 13:40:38;;;;;;;16.77;15.05;;;;;;;;;;5000207;28;20262;-78
2023/03/22 13:43:21;;;;;;;14.65;13.15;;;;;;;;;;5004238;28;20037;-75
2023/03/22 13:46:02;;;;;;;16.40;14.70;;;;;;;;;;5002255;28;20046;-79
2023/03/22 13:48:39;;;;;;;14.02;11.80;;;;;;;;;;5001510;28;20033;-75
2023/03/22 13:51:12;;;;;;;13.93;12.63;;;;;;;;;;5004916;28;20148;-76
2023/03/22 13:53:40;;;;;;;11.25;10.15;;;;;;;;;;5005280;28;20031;-78
2023/03/22 13:56:06;;;;;;;11.70;10.50;;;;;;;;;;5004766;28;20374;-76
2023/03/22 13:58:37;;;;;;;12.40;11.18;;;;;;;;;;5004411;28;20542;-75
2023/03/22 14:01:05;;;;;;;13.40;12.20;;;;;;;;;;5004306;28;20033;-76
2023/03/22 14:03:33;;;;;;;13.05;11.75;;;;;;;;;;5010248;28;20026;-75
2023/03/22 14:06:04;;;;;;;16.87;15.27;;;;;;;;;;5003496;28;20032;-77
2023/03/22 14:08:31;;;;;;;16.85;15.15;;;;;;;;;;5003501;28;20254;-76
2023/03/22 14:11:02;;;;;;;18.70;16.85;;;;;;;;;;5001716;28;20029;-76
2023/03/22 14:13:41;;;;;;;14.35;12.90;;;;;;;;;;5017175;28;20041;-75
2023/03/22 14:16:21;;;;;;;16.20;14.57;;;;;;;;;;5004050;28;20032;-75
2023/03/22 14:18:48;;;;;;;16.55;14.30;;;;;;;;;;5003735;28;20395;-74
2023/03/22 14:21:16;;;;;;;15.68;13.65;;;;;;;;;;5004657;28;20021;-75
2023/03/22 14:23:44;;;;;;;13.10;11.32;;;;;;;;;;5004503;28;20075;-74
2023/03/22 14:26:15;;;;;;;13.13;11.38;;;;;;;;;;5005041;28;20064;-75